createdAt,value
2019-03-05T00:01:01.830Z,98790.38
2019-03-05T00:03:09.686Z,98787.02
2019-03-05T00:05:17.149Z,98793.30
2019-03-05T00:07:26.970Z,98792.14
2019-03-05T00:09:33.878Z,98794.05
2019-03-05T00:11:41.521Z,98794.05
2019-03-05T00:13:50.352Z,98794.80
2019-03-05T00:15:57.150Z,98791.23
2019-03-05T00:18:05.904Z,98795.05
2019-03-05T00:20:14.156Z,98804.48
2019-03-05T00:22:21.203Z,98790.84
2019-03-05T00:25:03.600Z,98790.78
2019-03-05T00:27:10.685Z,98798.06
2019-03-05T00:29:30.145Z,98791.63
2019-03-05T00:31:41.304Z,98797.21
2019-03-05T00:34:11.347Z,98795.15
2019-03-05T00:36:34.176Z,98791.08
2019-03-05T00:39:14.475Z,98798.06
2019-03-05T00:41:28.927Z,98795.84
2019-03-05T00:44:16.499Z,98794.14
2019-03-05T00:46:44.150Z,98789.78
2019-03-05T00:49:10.177Z,98796.60
2019-03-05T00:51:54.177Z,98797.75
2019-03-05T00:54:24.237Z,98795.48
2019-03-05T00:56:56.327Z,98793.33
2019-03-05T00:59:07.179Z,98797.09
2019-03-05T01:01:42.457Z,98801.06
2019-03-05T01:04:06.627Z,98798.15
2019-03-05T01:06:28.648Z,98798.84
2019-03-05T01:08:35.817Z,98796.15
2019-03-05T01:10:42.598Z,98802.16
2019-03-05T01:12:49.714Z,98781.58
2019-03-05T01:14:59.817Z,98802.00
2019-03-05T01:17:06.774Z,98799.00
2019-03-05T01:19:13.743Z,98795.63
2019-03-05T01:21:21.680Z,98801.55
2019-03-05T01:23:28.908Z,98797.63
2019-03-05T01:25:36.539Z,98795.48
2019-03-05T01:27:44.938Z,98811.59
2019-03-05T01:29:52.071Z,98804.16
2019-03-05T01:32:00.602Z,98806.52
2019-03-05T01:36:33.317Z,98819.27
2019-03-05T01:38:46.888Z,98841.61
2019-03-05T01:40:55.364Z,98811.59
2019-03-05T01:43:01.969Z,98822.79
2019-03-05T01:45:12.844Z,98829.83
2019-03-05T01:47:19.535Z,98829.27
2019-03-05T01:49:26.506Z,98825.30
2019-03-05T01:51:33.463Z,98833.33
2019-03-05T01:53:41.432Z,98842.16
2019-03-05T01:55:48.137Z,98839.75
2019-03-05T01:57:58.791Z,98845.20
2019-03-05T02:00:25.059Z,98848.33
2019-03-05T02:02:34.371Z,98851.73
2019-03-05T02:04:45.413Z,98848.33
2019-03-05T02:06:52.743Z,98846.66
2019-03-05T02:08:59.606Z,98852.13
2019-03-05T02:11:06.868Z,98852.89
2019-03-05T02:13:14.386Z,98859.20
2019-03-05T02:15:21.692Z,98854.80
2019-03-05T02:17:28.613Z,98856.26
2019-03-05T02:19:46.825Z,98858.86
2019-03-05T02:21:53.488Z,98854.89
2019-03-05T02:24:39.625Z,98864.08
2019-03-05T02:26:56.324Z,98859.41
2019-03-05T02:29:37.792Z,98857.85
2019-03-05T02:34:57.253Z,98848.25
2019-03-05T02:37:27.615Z,98863.59
2019-03-05T02:39:48.180Z,98848.01
2019-03-05T02:42:17.138Z,98856.22
2019-03-05T02:44:32.037Z,98844.20
2019-03-05T02:46:59.974Z,98856.26
2019-03-05T02:49:19.403Z,98853.47
2019-03-05T02:51:46.654Z,98866.33
2019-03-05T02:54:06.005Z,98863.53
2019-03-05T02:56:44.460Z,98864.04
2019-03-05T02:58:49.544Z,98875.00
2019-03-05T03:01:02.016Z,98879.30
2019-03-05T03:03:10.626Z,98887.57
2019-03-05T03:05:32.057Z,98886.00
2019-03-05T03:07:42.164Z,98880.47
2019-03-05T03:09:56.151Z,98874.70
2019-03-05T03:12:03.326Z,98881.07
2019-03-05T03:14:10.373Z,98888.24
2019-03-05T03:16:19.070Z,98885.37
2019-03-05T03:18:25.910Z,98890.84
2019-03-05T03:20:34.022Z,98895.33
2019-03-05T03:22:41.187Z,98894.56
2019-03-05T03:24:48.139Z,98882.95
2019-03-05T03:26:54.959Z,98902.36
2019-03-05T03:29:01.609Z,98898.23
2019-03-05T03:31:08.645Z,98902.26
2019-03-05T03:33:15.534Z,98899.33
2019-03-05T03:35:22.805Z,98899.61
2019-03-05T03:37:29.772Z,98897.86
2019-03-05T03:39:38.451Z,98910.02
2019-03-05T03:41:45.548Z,98898.48
2019-03-05T03:43:52.315Z,98906.59
2019-03-05T03:45:58.779Z,98915.82
2019-03-05T03:48:05.677Z,98918.37
2019-03-05T03:50:13.849Z,98914.15
2019-03-05T03:52:21.712Z,98922.66
2019-03-05T03:54:28.624Z,98920.22
2019-03-05T03:56:35.614Z,98915.34
2019-03-05T03:58:42.871Z,98931.80
2019-03-05T04:00:50.242Z,98919.13
2019-03-05T04:02:57.276Z,98929.89
2019-03-05T04:05:04.537Z,98931.97
2019-03-05T04:07:14.102Z,98932.73
2019-03-05T04:09:21.005Z,98929.77
2019-03-05T04:11:28.116Z,98932.61
2019-03-05T04:13:34.757Z,98934.41
2019-03-05T04:15:41.890Z,98938.84
2019-03-05T04:17:48.685Z,98944.08
2019-03-05T04:19:55.606Z,98945.06
2019-03-05T04:22:02.838Z,98938.43
2019-03-05T04:24:09.881Z,98954.33
2019-03-05T04:26:17.235Z,98961.44
2019-03-05T04:28:24.364Z,98965.22
2019-03-05T04:30:31.171Z,98963.02
2019-03-05T04:32:41.668Z,98952.24
2019-03-05T04:34:49.122Z,98962.00
2019-03-05T04:36:56.819Z,98954.30
2019-03-05T04:39:04.968Z,98955.64
2019-03-05T04:41:11.787Z,98949.86
2019-03-05T04:43:19.517Z,98959.25
2019-03-05T04:45:40.916Z,98953.06
2019-03-05T04:47:48.181Z,98956.84
2019-03-05T04:50:02.983Z,98964.66
2019-03-05T04:52:11.560Z,98955.67
2019-03-05T04:54:18.257Z,98955.55
2019-03-05T04:56:27.242Z,98954.94
2019-03-05T04:58:34.255Z,98966.02
2019-03-05T05:00:41.724Z,98964.59
2019-03-05T05:02:48.800Z,98955.92
2019-03-05T05:04:55.768Z,98955.39
2019-03-05T05:07:02.662Z,98968.54
2019-03-05T05:09:09.573Z,98956.30
2019-03-05T05:11:16.576Z,98963.73
2019-03-05T05:13:23.500Z,98968.61
2019-03-05T05:15:40.460Z,98968.66
2019-03-05T05:17:47.305Z,98962.23
2019-03-05T05:20:06.627Z,98951.77
2019-03-05T05:22:15.958Z,98959.75
2019-03-05T05:24:22.685Z,98965.03
2019-03-05T05:26:31.082Z,98965.03
2019-03-05T05:28:37.719Z,98966.14
2019-03-05T05:30:44.768Z,98969.48
2019-03-05T05:32:51.619Z,98965.25
2019-03-05T05:34:58.466Z,98962.13
2019-03-05T05:37:05.328Z,98969.73
2019-03-05T05:40:06.740Z,98971.27
2019-03-05T05:42:13.966Z,98974.52
2019-03-05T05:44:20.721Z,98968.91
2019-03-05T05:46:28.413Z,98972.16
2019-03-05T05:48:35.349Z,98973.89
2019-03-05T05:50:43.776Z,98975.02
2019-03-05T05:52:52.488Z,98975.80
2019-03-05T05:54:59.246Z,98962.92
2019-03-05T05:57:05.908Z,98973.74
2019-03-05T05:59:12.735Z,98969.75
2019-03-05T06:01:19.647Z,98966.30
2019-03-05T06:03:26.390Z,98971.87
2019-03-05T06:05:34.835Z,98967.20
2019-03-05T06:07:42.247Z,98969.21
2019-03-05T06:09:49.215Z,98967.73
2019-03-05T06:11:56.317Z,98971.37
2019-03-05T06:14:04.085Z,98962.58
2019-03-05T06:16:11.088Z,98959.13
2019-03-05T06:18:18.376Z,98965.92
2019-03-05T06:20:25.337Z,98960.04
2019-03-05T06:22:32.307Z,98968.89
2019-03-05T06:24:39.178Z,98979.91
2019-03-05T06:26:46.216Z,98972.88
2019-03-05T06:28:52.938Z,98969.51
2019-03-05T06:30:59.884Z,98969.24
2019-03-05T06:33:07.027Z,98965.06
2019-03-05T06:35:15.487Z,98973.73
2019-03-05T06:37:22.918Z,98962.78
2019-03-05T06:39:30.327Z,98980.03
2019-03-05T06:41:37.297Z,98974.32
2019-03-05T06:43:44.427Z,98975.94
2019-03-05T06:45:51.362Z,98989.83
2019-03-05T06:47:58.267Z,98988.20
2019-03-05T06:50:06.387Z,99001.95
2019-03-05T06:52:13.317Z,98992.30
2019-03-05T06:54:20.037Z,98990.02
2019-03-05T06:56:26.824Z,98996.03
2019-03-05T06:58:33.648Z,98993.66
2019-03-05T07:00:41.678Z,99003.50
2019-03-05T07:03:00.527Z,98998.41
2019-03-05T07:05:10.935Z,99004.61
2019-03-05T07:07:17.936Z,99000.30
2019-03-05T07:09:52.971Z,99002.05
2019-03-05T07:12:21.824Z,99006.99
2019-03-05T07:14:48.097Z,99007.84
2019-03-05T07:17:08.058Z,98999.44
2019-03-05T07:19:15.407Z,99003.30
2019-03-05T07:21:51.176Z,98987.82
2019-03-05T07:24:38.876Z,98995.45
2019-03-05T07:26:45.917Z,98994.33
2019-03-05T07:28:53.335Z,98995.34
2019-03-05T07:31:00.589Z,99003.75
2019-03-05T07:33:07.687Z,99001.70
2019-03-05T07:35:18.830Z,99020.40
2019-03-05T07:37:25.768Z,99013.22
2019-03-05T07:39:32.811Z,99028.25
2019-03-05T07:41:39.756Z,99023.14
2019-03-05T07:43:46.649Z,99027.82
2019-03-05T07:45:53.647Z,99038.03
2019-03-05T07:48:00.464Z,99030.44
2019-03-05T07:50:11.746Z,99035.51
2019-03-05T07:52:18.637Z,99044.50
2019-03-05T07:54:26.987Z,99030.05
2019-03-05T07:56:33.999Z,99045.43
2019-03-05T07:58:41.024Z,99052.06
2019-03-05T08:00:47.904Z,99060.46
2019-03-05T08:02:55.442Z,99067.50
2019-03-05T08:05:02.487Z,99069.25
2019-03-05T08:07:10.387Z,99078.95
2019-03-05T08:09:38.027Z,99073.78
2019-03-05T08:11:46.127Z,99083.02
2019-03-05T08:14:15.666Z,99072.87
2019-03-05T08:16:24.844Z,99078.61
2019-03-05T08:18:31.868Z,99072.68
2019-03-05T08:20:39.023Z,99084.78
2019-03-05T08:22:46.448Z,99098.07
2019-03-05T08:24:53.460Z,99073.33
2019-03-05T08:27:00.448Z,99094.31
2019-03-05T08:29:07.337Z,99095.92
2019-03-05T08:31:14.229Z,99083.69
2019-03-05T08:33:21.289Z,99092.78
2019-03-05T08:35:29.528Z,99092.93
2019-03-05T08:37:36.411Z,99097.70
2019-03-05T08:39:43.704Z,99103.72
2019-03-05T08:41:50.347Z,99107.30
2019-03-05T08:43:57.474Z,99102.39
2019-03-05T08:46:04.518Z,99091.61
2019-03-05T08:48:13.167Z,99100.47
2019-03-05T08:50:20.293Z,99104.00
2019-03-05T08:52:27.098Z,99116.89
2019-03-05T08:54:34.917Z,99122.03
2019-03-05T08:56:41.786Z,99122.69
2019-03-05T08:58:48.522Z,99130.89
2019-03-05T09:00:57.342Z,99125.30
2019-03-05T09:03:04.222Z,99129.67
2019-03-05T09:05:13.739Z,99123.84
2019-03-05T09:07:20.947Z,99134.67
2019-03-05T09:09:27.728Z,99136.77
2019-03-05T09:11:34.667Z,99134.55
2019-03-05T09:13:41.784Z,99135.92
2019-03-05T09:15:49.138Z,99142.70
2019-03-05T09:17:56.404Z,99150.90
2019-03-05T09:20:03.935Z,99159.28
2019-03-05T09:22:12.644Z,99154.42
2019-03-05T09:24:19.895Z,99162.05
2019-03-05T09:26:26.903Z,99159.18
2019-03-05T09:28:35.325Z,99164.66
2019-03-05T09:30:42.277Z,99160.05
2019-03-05T09:32:51.145Z,99160.86
2019-03-05T09:34:58.685Z,99176.23
2019-03-05T09:37:06.137Z,99171.52
2019-03-05T09:39:14.438Z,99177.05
2019-03-05T09:41:21.554Z,99168.29
2019-03-05T09:43:28.624Z,99170.45
2019-03-05T09:45:35.868Z,99179.80
2019-03-05T09:47:42.725Z,99184.61
2019-03-05T09:49:51.601Z,99185.47
2019-03-05T09:51:58.511Z,99178.47
2019-03-05T09:54:05.584Z,99187.08
2019-03-05T09:56:12.865Z,99184.77
2019-03-05T09:58:20.248Z,99182.47
2019-03-05T10:00:29.259Z,99183.13
2019-03-05T10:02:36.768Z,99196.81
2019-03-05T10:04:44.018Z,99189.31
2019-03-05T10:06:51.249Z,99189.87
2019-03-05T10:08:58.516Z,99194.23
2019-03-05T10:11:05.589Z,99179.95
2019-03-05T10:13:13.435Z,99189.05
2019-03-05T10:15:22.937Z,99187.38
2019-03-05T10:17:37.935Z,99185.75
2019-03-05T10:19:39.525Z,99202.00
2019-03-05T10:21:46.770Z,99212.84
2019-03-05T10:23:54.376Z,99203.33
2019-03-05T10:26:01.416Z,99213.63
2019-03-05T10:28:08.599Z,99209.85
2019-03-05T10:30:37.659Z,99214.63
2019-03-05T10:32:45.896Z,99225.88
2019-03-05T10:34:53.309Z,99224.11
2019-03-05T10:37:00.257Z,99234.78
2019-03-05T10:39:11.397Z,99231.82
2019-03-05T10:41:19.926Z,99232.58
2019-03-05T10:43:27.829Z,99231.77
2019-03-05T10:45:34.859Z,99240.38
2019-03-05T10:47:42.226Z,99237.48
2019-03-05T10:49:49.100Z,99238.65
2019-03-05T10:51:58.787Z,99228.41
2019-03-05T10:54:05.307Z,99238.43
2019-03-05T10:56:12.363Z,99239.36
2019-03-05T10:58:20.610Z,99250.69
2019-03-05T11:00:31.569Z,99248.91
2019-03-05T11:02:38.620Z,99245.27
2019-03-05T11:04:46.153Z,99245.91
2019-03-05T11:06:53.811Z,99256.30
2019-03-05T11:09:02.745Z,99251.45
2019-03-05T11:11:13.900Z,99253.14
2019-03-05T11:13:20.879Z,99261.45
2019-03-05T11:15:30.887Z,99264.67
2019-03-05T11:17:38.429Z,99265.89
2019-03-05T11:19:46.049Z,99264.37
2019-03-05T11:21:53.439Z,99275.59
2019-03-05T11:24:00.869Z,99269.11
2019-03-05T11:26:08.034Z,99277.81
2019-03-05T11:28:15.180Z,99271.72
2019-03-05T11:30:36.203Z,99270.27
2019-03-05T11:32:37.546Z,99275.44
2019-03-05T11:34:44.460Z,99281.89
2019-03-05T11:36:53.099Z,99281.43
2019-03-05T11:39:00.300Z,99279.16
2019-03-05T11:41:08.780Z,99290.85
2019-03-05T11:43:18.106Z,99281.48
2019-03-05T11:45:29.964Z,99287.38
2019-03-05T11:47:36.937Z,99289.03
2019-03-05T11:49:43.750Z,99286.19
2019-03-05T11:51:50.737Z,99296.20
2019-03-05T11:53:57.657Z,99290.56
2019-03-05T11:56:04.421Z,99290.66
2019-03-05T11:58:11.585Z,99294.05
2019-03-05T12:00:27.906Z,99295.59
2019-03-05T12:02:35.259Z,99307.97
2019-03-05T12:04:42.667Z,99301.32
2019-03-05T12:06:49.539Z,99314.20
2019-03-05T12:08:56.957Z,99325.84
2019-03-05T12:11:04.237Z,99328.25
2019-03-05T12:13:11.379Z,99343.73
2019-03-05T12:15:21.469Z,99335.23
2019-03-05T12:17:28.059Z,99332.62
2019-03-05T12:19:35.629Z,99335.58
2019-03-05T12:21:42.727Z,99333.32
2019-03-05T12:23:49.778Z,99331.45
2019-03-05T12:25:56.698Z,99325.25
2019-03-05T12:28:10.178Z,99347.16
2019-03-05T12:30:17.739Z,99338.59
2019-03-05T12:32:25.339Z,99336.65
2019-03-05T12:34:32.219Z,99336.05
2019-03-05T12:36:39.266Z,99343.70
2019-03-05T12:38:46.488Z,99332.13
2019-03-05T12:40:54.368Z,99345.16
2019-03-05T12:43:01.876Z,99340.44
2019-03-05T12:45:12.139Z,99343.15
2019-03-05T12:47:19.021Z,99352.16
2019-03-05T12:49:26.289Z,99348.00
2019-03-05T12:51:33.049Z,99339.94
2019-03-05T12:53:40.040Z,99357.66
2019-03-05T12:55:48.734Z,99359.12
2019-03-05T12:57:55.941Z,99352.12
2019-03-05T13:00:03.338Z,99355.34
2019-03-05T13:02:11.801Z,99360.07
2019-03-05T13:04:19.643Z,99366.92
2019-03-05T13:06:30.263Z,99358.27
2019-03-05T13:08:37.592Z,99353.94
2019-03-05T13:10:45.339Z,99355.09
2019-03-05T13:12:52.381Z,99351.30
2019-03-05T13:14:59.380Z,99363.13
2019-03-05T13:17:07.011Z,99357.20
2019-03-05T13:19:14.368Z,99376.98
2019-03-05T13:21:21.453Z,99370.34
2019-03-05T13:23:28.478Z,99382.26
2019-03-05T13:25:38.137Z,99378.11
2019-03-05T13:27:44.812Z,99377.05
2019-03-05T13:29:51.856Z,99382.44
2019-03-05T13:31:58.797Z,99381.05
2019-03-05T13:34:06.032Z,99388.89
2019-03-05T13:36:13.569Z,99383.66
2019-03-05T13:38:21.024Z,99386.05
2019-03-05T13:40:34.066Z,99393.72
2019-03-05T13:42:39.986Z,99400.94
2019-03-05T13:44:47.205Z,99408.17
2019-03-05T13:46:54.674Z,99410.36
2019-03-05T13:49:09.036Z,99416.96
2019-03-05T13:51:40.922Z,99417.14
2019-03-05T13:54:09.530Z,99420.89
2019-03-05T13:56:28.862Z,99427.06
2019-03-05T13:59:13.544Z,99427.51
2019-03-05T14:01:21.514Z,99433.51
2019-03-05T14:03:38.418Z,99433.70
2019-03-05T14:06:10.106Z,99429.37
2019-03-05T14:09:00.962Z,99435.20
2019-03-05T14:11:09.675Z,99445.67
2019-03-05T14:13:16.812Z,99437.77
2019-03-05T14:15:24.135Z,99456.41
2019-03-05T14:17:31.892Z,99445.67
2019-03-05T14:19:39.291Z,99444.05
2019-03-05T14:21:46.948Z,99447.78
2019-03-05T14:23:54.081Z,99448.36
2019-03-05T14:26:01.563Z,99448.55
2019-03-05T14:28:09.157Z,99454.25
2019-03-05T14:30:22.244Z,99450.30
2019-03-05T14:32:29.377Z,99456.78
2019-03-05T14:34:36.523Z,99452.62
2019-03-05T14:36:45.281Z,99463.80
2019-03-05T14:38:52.303Z,99460.28
2019-03-05T14:41:00.325Z,99467.19
2019-03-05T14:43:07.786Z,99466.66
2019-03-05T14:45:24.186Z,99474.05
2019-03-05T14:47:32.708Z,99468.31
2019-03-05T14:49:39.755Z,99478.09
2019-03-05T14:51:47.154Z,99476.58
2019-03-05T14:53:54.414Z,99483.00
2019-03-05T14:56:01.564Z,99484.68
2019-03-05T14:58:08.538Z,99497.30
2019-03-05T15:00:20.431Z,99486.92
2019-03-05T15:02:27.636Z,99485.34
2019-03-05T15:04:34.917Z,99479.26
2019-03-05T15:06:42.702Z,99479.12
2019-03-05T15:08:49.841Z,99484.91
2019-03-05T15:10:57.065Z,99484.28
2019-03-05T15:13:15.283Z,99486.27
2019-03-05T15:15:29.327Z,99486.34
2019-03-05T15:17:36.991Z,99494.20
2019-03-05T15:19:44.708Z,99500.09
2019-03-05T15:21:52.080Z,99487.70
2019-03-05T15:23:59.557Z,99495.95
2019-03-05T15:26:07.061Z,99500.00
2019-03-05T15:28:14.254Z,99500.45
2019-03-05T15:30:29.396Z,99506.30
2019-03-05T15:32:36.845Z,99508.41
2019-03-05T15:34:44.136Z,99503.80
2019-03-05T15:36:52.128Z,99510.59
2019-03-05T15:38:59.495Z,99513.58
2019-03-05T15:41:07.226Z,99512.40
2019-03-05T15:43:14.993Z,99516.04
2019-03-05T15:45:24.191Z,99524.58
2019-03-05T15:47:32.050Z,99522.20
2019-03-05T15:49:40.457Z,99520.70
2019-03-05T15:51:48.497Z,99526.54
2019-03-05T15:53:55.690Z,99523.14
2019-03-05T15:56:02.879Z,99529.67
2019-03-05T15:58:10.596Z,99525.06
2019-03-05T16:00:28.836Z,99521.96
2019-03-05T16:02:36.485Z,99541.23
2019-03-05T16:04:44.130Z,99540.41
2019-03-05T16:06:51.373Z,99535.92
2019-03-05T16:09:02.265Z,99534.50
2019-03-05T16:11:08.867Z,99540.53
2019-03-05T16:13:19.319Z,99534.98
2019-03-05T16:15:25.299Z,99550.38
2019-03-05T16:17:33.108Z,99553.15
2019-03-05T16:19:40.504Z,99560.25
2019-03-05T16:21:48.023Z,99551.11
2019-03-05T16:23:55.439Z,99550.86
2019-03-05T16:26:02.540Z,99557.39
2019-03-05T16:28:09.803Z,99564.86
2019-03-05T16:30:43.854Z,99564.58
2019-03-05T16:32:52.765Z,99572.00
2019-03-05T16:35:01.809Z,99578.20
2019-03-05T16:37:13.813Z,99576.45
2019-03-05T16:39:39.224Z,99576.45
2019-03-05T16:41:53.495Z,99577.75
2019-03-05T16:44:16.350Z,99581.59
2019-03-05T16:46:43.372Z,99588.32
2019-03-05T16:49:12.309Z,99593.83
2019-03-05T16:51:26.522Z,99598.24
2019-03-05T16:53:48.221Z,99598.32
2019-03-05T16:56:10.052Z,99607.50
2019-03-05T16:58:36.574Z,99612.23
2019-03-05T17:00:49.148Z,99619.25
2019-03-05T17:03:04.114Z,99621.87
2019-03-05T17:05:33.113Z,99628.84
2019-03-05T17:07:53.744Z,99635.37
2019-03-05T17:10:08.372Z,99635.11
2019-03-05T17:12:15.944Z,99640.91
2019-03-05T17:14:24.097Z,99644.08
2019-03-05T17:16:31.580Z,99650.20
2019-03-05T17:18:38.700Z,99647.58
2019-03-05T17:20:47.169Z,99652.92
2019-03-05T17:22:54.464Z,99654.75
2019-03-05T17:25:02.006Z,99652.70
2019-03-05T17:27:09.421Z,99663.63
2019-03-05T17:29:16.898Z,99659.34
2019-03-05T17:31:24.410Z,99665.34
2019-03-05T17:33:31.685Z,99666.77
2019-03-05T17:35:38.943Z,99662.09
2019-03-05T17:37:49.655Z,99666.57
2019-03-05T17:39:56.915Z,99664.52
2019-03-05T17:42:04.162Z,99667.34
2019-03-05T17:44:11.715Z,99674.47
2019-03-05T17:46:18.861Z,99673.45
2019-03-05T17:48:26.802Z,99669.78
2019-03-05T17:50:37.403Z,99670.75
2019-03-05T17:52:45.420Z,99675.32
2019-03-05T17:54:53.476Z,99683.55
2019-03-05T17:57:01.262Z,99688.60
2019-03-05T17:59:09.642Z,99686.44
2019-03-05T18:01:18.242Z,99692.14
2019-03-05T18:03:26.114Z,99705.97
2019-03-05T18:05:34.818Z,99711.60
2019-03-05T18:07:43.983Z,99715.69
2019-03-05T18:09:51.926Z,99709.03
2019-03-05T18:11:59.454Z,99704.77
2019-03-05T18:14:07.354Z,99710.47
2019-03-05T18:16:15.374Z,99710.09
2019-03-05T18:18:23.070Z,99718.27
2019-03-05T18:20:30.919Z,99718.91
2019-03-05T18:22:40.928Z,99726.19
2019-03-05T18:24:48.533Z,99725.95
2019-03-05T18:26:56.383Z,99728.94
2019-03-05T18:29:05.776Z,99721.86
2019-03-05T18:31:13.060Z,99729.69
2019-03-05T18:33:20.373Z,99737.11
2019-03-05T18:35:28.217Z,99738.38
2019-03-05T18:37:35.666Z,99741.09
2019-03-05T18:39:44.571Z,99733.81
2019-03-05T18:41:58.805Z,99744.80
2019-03-05T18:44:07.359Z,99749.61
2019-03-05T18:46:15.011Z,99752.53
2019-03-05T18:48:22.613Z,99759.67
2019-03-05T18:50:30.153Z,99758.84
2019-03-05T18:52:37.520Z,99758.05
2019-03-05T18:54:44.872Z,99770.24
2019-03-05T18:56:52.102Z,99768.94
2019-03-05T18:59:00.816Z,99769.00
2019-03-05T19:01:09.814Z,99772.09
2019-03-05T19:03:19.495Z,99778.69
2019-03-05T19:05:27.236Z,99768.28
2019-03-05T19:07:34.755Z,99769.59
2019-03-05T19:09:42.222Z,99780.44
2019-03-05T19:11:49.605Z,99784.69
2019-03-05T19:13:57.242Z,99785.00
2019-03-05T19:16:05.031Z,99781.53
2019-03-05T19:18:12.720Z,99781.13
2019-03-05T19:20:23.149Z,99793.06
2019-03-05T19:22:32.030Z,99793.27
2019-03-05T19:24:39.840Z,99781.51
2019-03-05T19:26:48.802Z,99792.70
2019-03-05T19:28:56.474Z,99792.58
2019-03-05T19:31:04.032Z,99791.11
2019-03-05T19:33:18.310Z,99790.41
2019-03-05T19:35:27.775Z,99799.30
2019-03-05T19:37:36.752Z,99809.31
2019-03-05T19:39:46.829Z,99805.14
2019-03-05T19:41:56.312Z,99814.36
2019-03-05T19:44:04.382Z,99812.73
2019-03-05T19:46:11.732Z,99815.86
2019-03-05T19:48:19.310Z,99814.30
2019-03-05T19:50:27.780Z,99822.59
2019-03-05T19:52:35.506Z,99827.80
2019-03-05T19:54:42.882Z,99830.48
2019-03-05T19:56:50.583Z,99836.53
2019-03-05T19:58:59.155Z,99836.47
2019-03-05T20:01:15.524Z,99843.93
2019-03-05T20:03:22.883Z,99845.34
2019-03-05T20:05:30.303Z,99849.73
2019-03-05T20:07:38.942Z,99850.16
2019-03-05T20:09:46.266Z,99853.19
2019-03-05T20:11:53.695Z,99857.93
2019-03-05T20:14:02.423Z,99861.84
2019-03-05T20:16:11.696Z,99871.81
2019-03-05T20:18:19.082Z,99872.59
2019-03-05T20:20:26.722Z,99876.05
2019-03-05T20:22:34.091Z,99885.09
2019-03-05T20:24:41.596Z,99889.36
2019-03-05T20:26:52.822Z,99888.89
2019-03-05T20:29:00.773Z,99896.70
2019-03-05T20:31:10.498Z,99882.81
2019-03-05T20:33:20.555Z,99890.24
2019-03-05T20:35:31.525Z,99891.19
2019-03-05T20:37:41.047Z,99901.17
2019-03-05T20:39:50.642Z,99905.58
2019-03-05T20:41:58.344Z,99906.38
2019-03-05T20:44:06.565Z,99913.33
2019-03-05T20:46:22.689Z,99912.97
2019-03-05T20:48:32.457Z,99918.63
2019-03-05T20:50:41.580Z,99916.44
2019-03-05T20:52:53.303Z,99912.55
2019-03-05T20:55:05.716Z,99918.69
2019-03-05T20:57:13.920Z,99933.04
2019-03-05T20:59:21.937Z,99926.11
2019-03-05T21:01:29.913Z,99932.63
2019-03-05T21:03:37.451Z,99925.28
2019-03-05T21:05:47.404Z,99947.86
2019-03-05T21:07:54.739Z,99944.03
2019-03-05T21:10:04.261Z,99952.27
2019-03-05T21:12:12.420Z,99950.52
2019-03-05T21:14:19.952Z,99953.95
2019-03-05T21:16:30.337Z,99958.72
2019-03-05T21:18:37.621Z,99964.01
2019-03-05T21:20:45.567Z,99967.05
2019-03-05T21:22:55.139Z,99975.79
2019-03-05T21:25:03.087Z,99970.58
2019-03-05T21:27:11.328Z,99978.47
2019-03-05T21:29:21.192Z,99980.68
2019-03-05T21:31:28.377Z,99979.88
2019-03-05T21:33:35.977Z,99984.22
2019-03-05T21:35:43.495Z,100002.02
2019-03-05T21:37:51.175Z,99996.83
2019-03-05T21:39:58.647Z,100000.73
2019-03-05T21:42:06.246Z,100005.48
2019-03-05T21:44:13.533Z,100008.50
2019-03-05T21:46:21.647Z,100015.41
2019-03-05T21:48:29.207Z,100025.36
2019-03-05T21:50:37.250Z,100024.45
2019-03-05T21:52:45.607Z,100034.86
2019-03-05T21:54:53.135Z,100039.17
2019-03-05T21:57:01.798Z,100043.96
2019-03-05T21:59:10.087Z,100048.73
2019-03-05T22:01:18.089Z,100060.05
2019-03-05T22:03:26.136Z,100050.55
2019-03-05T22:05:33.769Z,100061.35
2019-03-05T22:07:41.168Z,100064.02
2019-03-05T22:09:49.068Z,100067.99
2019-03-05T22:11:56.336Z,100077.53
2019-03-05T22:14:03.935Z,100091.87
2019-03-05T22:16:11.387Z,100093.69
2019-03-05T22:18:18.409Z,100102.88
2019-03-05T22:20:25.808Z,100100.84
2019-03-05T22:22:32.547Z,100109.98
2019-03-05T22:24:39.837Z,100103.59
2019-03-05T22:26:47.074Z,100107.96
2019-03-05T22:28:54.037Z,100111.93
2019-03-05T22:31:01.174Z,100112.41
2019-03-05T22:33:09.147Z,100124.16
2019-03-05T22:35:17.888Z,100123.34
2019-03-05T22:37:24.960Z,100132.88
2019-03-05T22:39:32.372Z,100129.85
2019-03-05T22:41:39.444Z,100132.03
2019-03-05T22:43:46.561Z,100132.95
2019-03-05T22:45:53.356Z,100143.36
2019-03-05T22:48:00.998Z,100145.54
2019-03-05T22:50:12.789Z,100138.17
2019-03-05T22:52:20.693Z,100149.02
2019-03-05T22:54:27.994Z,100150.77
2019-03-05T22:56:46.392Z,100153.37
2019-03-05T22:58:53.201Z,100165.99
2019-03-05T23:01:05.566Z,100163.83
2019-03-05T23:03:18.569Z,100165.62
2019-03-05T23:05:25.661Z,100172.13
2019-03-05T23:07:32.845Z,100177.41
2019-03-05T23:09:41.197Z,100184.84
2019-03-05T23:11:48.444Z,100188.76
2019-03-05T23:13:55.655Z,100187.50
2019-03-05T23:16:03.246Z,100186.22
2019-03-05T23:18:10.509Z,100194.07
2019-03-05T23:20:18.705Z,100194.52
2019-03-05T23:22:26.050Z,100207.14
2019-03-05T23:24:33.202Z,100209.77
2019-03-05T23:26:40.242Z,100210.64
2019-03-05T23:28:47.543Z,100216.34
2019-03-05T23:30:55.243Z,100209.02
2019-03-05T23:33:02.682Z,100212.05
2019-03-05T23:35:15.202Z,100212.10
2019-03-05T23:37:22.494Z,100222.09
2019-03-05T23:39:29.712Z,100216.06
2019-03-05T23:41:37.444Z,100221.72
2019-03-05T23:43:44.319Z,100223.94
2019-03-05T23:45:51.347Z,100225.67
2019-03-05T23:47:58.389Z,100238.20
2019-03-05T23:50:14.494Z,100244.70
2019-03-05T23:52:21.898Z,100248.66
2019-03-05T23:54:29.841Z,100253.42
2019-03-05T23:56:36.778Z,100253.43
2019-03-05T23:58:44.332Z,100257.77
